createdAt,value
2022-09-30T00:00:23.949Z,19.10
2022-09-30T00:03:20.575Z,19.90
2022-09-30T00:06:08.062Z,20.20
2022-09-30T00:08:45.679Z,19.00
2022-09-30T00:11:20.682Z,18.70
2022-09-30T00:13:55.835Z,17.70
2022-09-30T00:16:35.718Z,18.30
2022-09-30T00:19:09.537Z,17.50
2022-09-30T00:21:46.536Z,17.30
2022-09-30T00:24:24.923Z,17.60
2022-09-30T00:26:58.513Z,17.50
2022-09-30T00:29:32.314Z,17.80
2022-09-30T00:32:15.541Z,18.60
2022-09-30T00:34:59.504Z,17.90
2022-09-30T00:37:35.521Z,17.40
2022-09-30T00:40:20.673Z,16.90
2022-09-30T00:42:57.440Z,16.60
2022-09-30T00:45:47.498Z,17.30
2022-09-30T00:48:27.113Z,17.30
2022-09-30T00:51:07.452Z,16.00
2022-09-30T00:53:53.136Z,16.80
2022-09-30T00:56:29.910Z,18.00
2022-09-30T00:59:20.214Z,16.90
2022-09-30T01:01:57.508Z,17.10
2022-09-30T01:04:36.776Z,17.10
2022-09-30T01:07:16.214Z,16.20
2022-09-30T01:09:58.702Z,16.00
2022-09-30T01:12:53.352Z,16.60
2022-09-30T01:15:53.753Z,17.20
2022-09-30T01:18:56.679Z,16.10
2022-09-30T01:22:08.488Z,18.10
2022-09-30T01:25:02.398Z,17.70
2022-09-30T01:28:01.599Z,16.90
2022-09-30T01:30:55.614Z,16.50
2022-09-30T01:33:41.353Z,15.50
2022-09-30T01:36:31.167Z,15.00
2022-09-30T01:39:23.782Z,16.30
2022-09-30T01:42:12.017Z,16.20
2022-09-30T01:44:58.943Z,16.00
2022-09-30T01:47:44.356Z,16.50
2022-09-30T01:50:24.962Z,15.30
2022-09-30T01:53:11.717Z,16.30
2022-09-30T01:55:53.796Z,16.30
2022-09-30T01:58:39.408Z,15.20
2022-09-30T02:01:41.207Z,14.30
2022-09-30T02:04:21.353Z,14.80
2022-09-30T02:07:02.808Z,15.00
2022-09-30T02:09:43.840Z,14.60
2022-09-30T02:12:26.627Z,16.40
2022-09-30T02:15:08.061Z,15.20
2022-09-30T02:17:52.277Z,15.00
2022-09-30T02:20:34.256Z,16.20
2022-09-30T02:23:16.272Z,15.00
2022-09-30T02:25:55.467Z,16.00
2022-09-30T02:28:33.565Z,14.40
2022-09-30T02:31:11.507Z,14.30
2022-09-30T02:33:52.175Z,14.30
2022-09-30T02:36:31.819Z,15.00
2022-09-30T02:39:09.641Z,15.60
2022-09-30T02:41:46.570Z,16.10
2022-09-30T02:44:23.305Z,15.40
2022-09-30T02:47:17.638Z,15.90
2022-09-30T02:50:02.484Z,15.40
2022-09-30T02:52:55.593Z,14.00
2022-09-30T02:55:40.925Z,15.00
2022-09-30T02:58:16.452Z,14.20
2022-09-30T03:00:50.117Z,15.00
2022-09-30T03:06:06.191Z,14.80
2022-09-30T03:08:39.746Z,16.30
2022-09-30T03:11:16.874Z,16.00
2022-09-30T03:14:16.044Z,14.60
2022-09-30T03:17:11.801Z,13.60
2022-09-30T03:20:04.347Z,15.10
2022-09-30T03:23:21.369Z,15.60
2022-09-30T03:26:06.493Z,14.50
2022-09-30T03:28:48.229Z,14.70
2022-09-30T03:31:31.009Z,14.50
2022-09-30T03:34:18.911Z,16.10
2022-09-30T03:37:04.825Z,16.40
2022-09-30T03:39:54.792Z,15.50
2022-09-30T03:42:39.142Z,14.60
2022-09-30T03:45:21.367Z,14.70
2022-09-30T03:47:58.752Z,14.50
2022-09-30T03:50:39.125Z,15.60
2022-09-30T03:53:16.997Z,14.80
2022-09-30T03:55:53.184Z,15.40
2022-09-30T03:58:30.637Z,15.80
2022-09-30T04:01:04.594Z,15.10
2022-09-30T04:03:37.900Z,16.20
2022-09-30T04:06:32.007Z,16.00
2022-09-30T04:09:05.521Z,15.30
2022-09-30T04:11:42.728Z,14.20
2022-09-30T04:14:19.193Z,14.60
2022-09-30T04:16:56.088Z,15.00
2022-09-30T04:19:29.937Z,14.40
2022-09-30T04:22:03.818Z,15.30
2022-09-30T04:24:40.960Z,14.90
2022-09-30T04:27:17.826Z,15.60
2022-09-30T04:29:54.147Z,16.40
2022-09-30T04:32:29.210Z,16.90
2022-09-30T04:35:03.097Z,14.60
2022-09-30T04:37:36.810Z,14.10
2022-09-30T04:40:12.276Z,14.10
2022-09-30T04:42:46.006Z,13.80
2022-09-30T04:45:20.704Z,14.40
2022-09-30T04:48:07.224Z,15.60
2022-09-30T04:50:44.742Z,15.80
2022-09-30T04:53:21.578Z,14.80
2022-09-30T04:56:03.779Z,14.30
2022-09-30T04:58:37.791Z,16.10
2022-09-30T05:01:13.442Z,14.70
2022-09-30T05:06:22.874Z,15.00
2022-09-30T05:09:16.706Z,16.30
2022-09-30T05:11:53.862Z,18.40
2022-09-30T05:14:30.437Z,16.80
2022-09-30T05:17:06.755Z,17.00
2022-09-30T05:19:50.156Z,17.50
2022-09-30T05:22:27.241Z,18.20
2022-09-30T05:25:04.192Z,18.30
2022-09-30T05:27:37.896Z,16.60
2022-09-30T05:30:15.141Z,17.80
2022-09-30T05:32:48.638Z,18.40
2022-09-30T05:35:24.729Z,20.70
2022-09-30T05:38:07.110Z,20.40
2022-09-30T05:40:45.584Z,21.10
2022-09-30T05:43:30.641Z,21.60
2022-09-30T05:46:03.923Z,21.30
2022-09-30T05:48:40.023Z,18.60
2022-09-30T05:51:19.906Z,18.90
2022-09-30T05:53:53.458Z,19.20
2022-09-30T05:56:27.047Z,21.40
2022-09-30T05:59:03.769Z,22.90
2022-09-30T06:01:37.926Z,23.10
2022-09-30T06:04:11.702Z,24.30
2022-09-30T06:06:49.026Z,23.70
2022-09-30T06:09:22.927Z,24.20
2022-09-30T06:11:58.487Z,22.40
2022-09-30T06:14:39.693Z,20.40
2022-09-30T06:17:18.979Z,21.20
2022-09-30T06:19:55.793Z,22.30
2022-09-30T06:22:39.268Z,24.10
2022-09-30T06:25:13.341Z,23.50
2022-09-30T06:27:49.304Z,24.20
2022-09-30T06:30:35.196Z,25.10
2022-09-30T06:33:19.992Z,24.20
2022-09-30T06:35:54.257Z,23.60
2022-09-30T06:38:30.803Z,24.90
2022-09-30T06:41:08.026Z,25.40
2022-09-30T06:43:56.586Z,24.80
2022-09-30T06:46:52.577Z,25.60
2022-09-30T06:49:44.152Z,23.90
2022-09-30T06:52:23.457Z,25.20
2022-09-30T06:55:07.070Z,24.90
2022-09-30T06:57:44.047Z,22.90
2022-09-30T07:00:18.167Z,23.10
2022-09-30T07:02:51.751Z,22.70
2022-09-30T07:05:26.852Z,24.70
2022-09-30T07:08:00.738Z,24.50
2022-09-30T07:10:34.913Z,24.00
2022-09-30T07:13:12.664Z,25.40
2022-09-30T07:15:46.900Z,22.50
2022-09-30T07:18:28.171Z,24.70
2022-09-30T07:21:06.136Z,23.60
2022-09-30T07:23:45.863Z,24.10
2022-09-30T07:26:24.173Z,26.40
2022-09-30T07:29:01.609Z,24.90
2022-09-30T07:31:36.062Z,24.50
2022-09-30T07:34:10.751Z,24.00
2022-09-30T07:36:45.879Z,23.20
2022-09-30T07:39:19.365Z,25.50
2022-09-30T07:41:55.057Z,24.50
2022-09-30T07:44:29.674Z,24.20
2022-09-30T07:47:03.550Z,23.50
2022-09-30T07:49:37.760Z,23.30
2022-09-30T07:52:12.734Z,21.50
2022-09-30T07:54:50.409Z,21.90
2022-09-30T07:57:28.383Z,18.90
2022-09-30T08:00:29.790Z,17.60
2022-09-30T08:03:01.890Z,18.10
2022-09-30T08:05:40.499Z,19.30
2022-09-30T08:08:14.138Z,19.30
2022-09-30T08:10:48.341Z,19.00
2022-09-30T08:13:42.551Z,18.70
2022-09-30T08:16:16.002Z,19.30
2022-09-30T08:18:50.162Z,18.50
2022-09-30T08:21:23.956Z,19.90
2022-09-30T08:23:57.291Z,19.40
2022-09-30T08:26:33.076Z,19.90
2022-09-30T08:29:07.748Z,19.30
2022-09-30T08:31:41.459Z,21.90
2022-09-30T08:34:15.561Z,20.60
2022-09-30T08:36:49.089Z,19.70
2022-09-30T08:39:23.051Z,19.30
2022-09-30T08:42:35.968Z,18.00
2022-09-30T08:45:27.351Z,18.40
2022-09-30T08:48:10.138Z,17.70
2022-09-30T08:50:58.237Z,17.20
2022-09-30T08:53:34.796Z,16.20
2022-09-30T08:56:09.177Z,17.60
2022-09-30T08:58:47.547Z,17.70
2022-09-30T09:01:31.444Z,17.20
2022-09-30T09:04:07.143Z,17.50
2022-09-30T09:06:48.224Z,17.20
2022-09-30T09:09:49.883Z,17.10
2022-09-30T09:12:38.954Z,17.00
2022-09-30T09:15:33.041Z,14.50
2022-09-30T09:18:34.907Z,16.00
2022-09-30T09:21:22.340Z,15.40
2022-09-30T09:23:59.700Z,15.20
2022-09-30T09:26:37.600Z,14.80
2022-09-30T09:29:27.792Z,13.60
2022-09-30T09:32:02.484Z,16.10
2022-09-30T09:34:38.287Z,14.60
2022-09-30T09:37:45.058Z,16.30
2022-09-30T09:40:28.986Z,16.10
2022-09-30T09:43:15.841Z,14.90
2022-09-30T09:45:58.852Z,15.10
2022-09-30T09:48:36.486Z,15.90
2022-09-30T09:51:27.152Z,15.70
2022-09-30T09:54:05.693Z,13.80
2022-09-30T09:56:39.098Z,13.90
2022-09-30T09:59:15.266Z,15.00
2022-09-30T10:01:52.611Z,17.40
2022-09-30T10:04:27.997Z,17.00
2022-09-30T10:07:03.231Z,15.40
2022-09-30T10:09:38.434Z,16.20
2022-09-30T10:12:32.420Z,13.80
2022-09-30T10:15:23.107Z,13.60
2022-09-30T10:18:01.171Z,14.50
2022-09-30T10:20:38.072Z,16.30
2022-09-30T10:23:34.116Z,16.00
2022-09-30T10:26:19.693Z,14.90
2022-09-30T10:28:54.771Z,14.90
2022-09-30T10:31:31.938Z,15.10
2022-09-30T10:34:19.772Z,14.10
2022-09-30T10:36:54.295Z,13.60
2022-09-30T10:39:34.299Z,13.10
2022-09-30T10:42:11.715Z,14.80
2022-09-30T10:45:02.435Z,15.40
2022-09-30T10:47:37.550Z,16.00
2022-09-30T10:50:17.498Z,13.30
2022-09-30T10:52:56.866Z,15.60
2022-09-30T10:55:36.574Z,14.40
2022-09-30T10:58:31.085Z,13.80
2022-09-30T11:01:13.185Z,14.40
2022-09-30T11:04:02.307Z,14.20
2022-09-30T11:06:39.342Z,12.30
2022-09-30T11:09:17.822Z,13.70
2022-09-30T11:11:56.950Z,13.50
2022-09-30T11:14:37.263Z,11.90
2022-09-30T11:17:22.772Z,12.00
2022-09-30T11:20:07.189Z,12.00
2022-09-30T11:22:49.413Z,11.20
2022-09-30T11:25:29.781Z,10.70
2022-09-30T11:28:33.893Z,10.70
2022-09-30T11:31:18.170Z,10.30
2022-09-30T11:34:09.741Z,10.30
2022-09-30T11:36:51.979Z,10.50
2022-09-30T11:39:49.777Z,10.00
2022-09-30T11:42:32.872Z,9.60
2022-09-30T11:45:28.864Z,10.20
2022-09-30T11:48:31.874Z,9.60
2022-09-30T11:51:16.078Z,8.90
2022-09-30T11:53:57.030Z,8.30
2022-09-30T11:56:40.947Z,7.70
2022-09-30T11:59:22.754Z,7.70
2022-09-30T12:02:01.437Z,7.20
2022-09-30T12:04:40.949Z,7.90
2022-09-30T12:07:42.946Z,8.40
2022-09-30T12:10:27.451Z,7.80
2022-09-30T12:13:06.930Z,8.70
2022-09-30T12:15:42.383Z,7.90
2022-09-30T12:18:19.861Z,7.60
2022-09-30T12:20:57.023Z,8.00
2022-09-30T12:23:44.058Z,7.90
2022-09-30T12:26:18.905Z,8.20
2022-09-30T12:29:15.341Z,8.10
2022-09-30T12:32:16.430Z,7.70
2022-09-30T12:35:04.436Z,8.10
2022-09-30T12:37:53.257Z,6.90
2022-09-30T12:40:51.556Z,7.60
2022-09-30T12:43:45.180Z,7.30
2022-09-30T12:46:23.969Z,7.70
2022-09-30T12:49:02.208Z,7.00
2022-09-30T12:51:44.636Z,7.10
2022-09-30T12:54:23.789Z,7.60
2022-09-30T12:57:01.529Z,7.50
2022-09-30T12:59:37.872Z,7.20
2022-09-30T13:02:26.399Z,7.50
2022-09-30T13:05:38.446Z,7.90
2022-09-30T13:08:39.213Z,7.50
2022-09-30T13:11:44.939Z,7.10
2022-09-30T13:14:33.263Z,7.20
2022-09-30T13:17:30.174Z,7.50
2022-09-30T13:20:04.080Z,6.80
2022-09-30T13:22:46.714Z,7.70
2022-09-30T13:25:20.641Z,8.10
2022-09-30T13:31:19.550Z,7.90
2022-09-30T13:34:12.052Z,7.50
2022-09-30T13:37:01.835Z,8.50
2022-09-30T13:39:45.980Z,7.50
2022-09-30T13:42:45.976Z,7.40
2022-09-30T13:45:23.209Z,8.30
2022-09-30T13:48:11.359Z,8.30
2022-09-30T13:50:53.956Z,7.80
2022-09-30T13:53:35.131Z,6.60
2022-09-30T13:56:14.836Z,6.60
2022-09-30T13:59:19.909Z,6.30
2022-09-30T14:02:22.582Z,6.10
2022-09-30T14:05:15.823Z,5.00
2022-09-30T14:08:06.983Z,5.20
2022-09-30T14:10:58.630Z,5.10
2022-09-30T14:13:51.400Z,5.20
2022-09-30T14:16:57.249Z,5.00
2022-09-30T14:19:58.153Z,4.70
2022-09-30T14:22:34.107Z,5.00
2022-09-30T14:28:05.154Z,4.90
2022-09-30T14:31:04.376Z,5.50
2022-09-30T14:33:39.902Z,5.50
2022-09-30T14:36:18.465Z,5.40
2022-09-30T14:38:56.134Z,5.20
2022-09-30T14:41:31.774Z,5.70
2022-09-30T14:44:08.499Z,4.80
2022-09-30T14:46:47.554Z,6.10
2022-09-30T14:51:55.348Z,5.40
2022-09-30T14:54:30.450Z,6.00
2022-09-30T14:57:18.419Z,5.80
2022-09-30T14:59:52.085Z,5.60
2022-09-30T15:02:25.374Z,6.70
2022-09-30T15:05:01.712Z,6.50
2022-09-30T15:07:35.679Z,6.20
2022-09-30T15:10:19.085Z,5.80
2022-09-30T15:12:55.535Z,6.40
2022-09-30T15:15:40.936Z,7.20
2022-09-30T15:18:36.042Z,6.70
2022-09-30T15:21:12.844Z,6.90
2022-09-30T15:23:51.903Z,6.70
2022-09-30T15:26:27.432Z,7.00
2022-09-30T15:29:00.922Z,6.90
2022-09-30T15:31:36.132Z,7.30
2022-09-30T15:34:21.776Z,7.20
2022-09-30T15:37:07.029Z,7.10
2022-09-30T15:40:00.543Z,7.40
2022-09-30T15:42:38.567Z,7.30
2022-09-30T15:45:35.298Z,7.50
2022-09-30T15:48:29.241Z,7.30
2022-09-30T15:51:23.550Z,7.00
2022-09-30T15:54:00.818Z,6.10
2022-09-30T15:56:39.110Z,6.70
2022-09-30T15:59:22.749Z,7.50
2022-09-30T16:02:00.112Z,6.90
2022-09-30T16:04:33.787Z,8.50
2022-09-30T16:07:12.969Z,8.10
2022-09-30T16:09:50.764Z,8.00
2022-09-30T16:12:28.466Z,8.80
2022-09-30T16:15:10.262Z,8.60
2022-09-30T16:17:50.342Z,8.00
2022-09-30T16:20:27.118Z,8.20
2022-09-30T16:23:02.922Z,8.50
2022-09-30T16:25:37.307Z,8.30
2022-09-30T16:28:15.421Z,8.90
2022-09-30T16:33:25.105Z,7.80
2022-09-30T16:35:58.910Z,8.00
2022-09-30T16:38:32.531Z,8.30
2022-09-30T16:41:07.475Z,7.70
2022-09-30T16:43:40.946Z,7.30
2022-09-30T16:46:15.194Z,7.60
2022-09-30T16:48:48.991Z,8.20
2022-09-30T16:51:22.493Z,7.90
2022-09-30T16:53:56.309Z,8.60
2022-09-30T16:56:31.763Z,9.30
2022-09-30T16:59:15.448Z,8.10
2022-09-30T17:01:49.275Z,9.10
2022-09-30T17:04:39.077Z,9.60
2022-09-30T17:07:15.415Z,9.10
2022-09-30T17:10:14.533Z,9.40
2022-09-30T17:12:52.314Z,9.70
2022-09-30T17:15:29.496Z,9.50
2022-09-30T17:18:08.666Z,9.80
2022-09-30T17:20:54.302Z,12.00
2022-09-30T17:23:29.358Z,10.90
2022-09-30T17:26:07.741Z,10.60
2022-09-30T17:28:50.803Z,10.20
2022-09-30T17:31:24.584Z,9.70
2022-09-30T17:33:58.166Z,10.40
2022-09-30T17:36:32.248Z,10.90
2022-09-30T17:39:08.590Z,11.10
2022-09-30T17:42:00.125Z,10.80
2022-09-30T17:44:34.424Z,10.50
2022-09-30T17:47:07.732Z,11.50
2022-09-30T17:49:41.441Z,10.70
2022-09-30T17:52:23.175Z,10.60
2022-09-30T17:54:57.284Z,10.50
2022-09-30T17:57:32.138Z,10.00
2022-09-30T18:00:06.667Z,9.90
2022-09-30T18:02:42.366Z,10.50
2022-09-30T18:05:17.321Z,10.60
2022-09-30T18:07:50.965Z,9.40
2022-09-30T18:10:24.742Z,10.30
2022-09-30T18:12:59.998Z,9.40
2022-09-30T18:15:33.591Z,11.00
2022-09-30T18:18:09.661Z,9.80
2022-09-30T18:20:51.939Z,10.30
2022-09-30T18:23:28.944Z,9.50
2022-09-30T18:26:02.837Z,10.10
2022-09-30T18:28:41.425Z,10.40
2022-09-30T18:31:21.934Z,10.40
2022-09-30T18:33:55.464Z,11.40
2022-09-30T18:36:32.743Z,11.40
2022-09-30T18:39:06.972Z,11.80
2022-09-30T18:41:45.796Z,11.70
2022-09-30T18:44:19.781Z,11.80
2022-09-30T18:46:57.096Z,12.10
2022-09-30T18:49:30.832Z,11.20
2022-09-30T18:52:04.951Z,11.90
2022-09-30T18:54:38.306Z,12.40
2022-09-30T18:57:11.865Z,12.20
2022-09-30T18:59:57.285Z,11.00
2022-09-30T19:02:32.666Z,11.20
2022-09-30T19:05:06.638Z,10.50
2022-09-30T19:07:40.064Z,10.40
2022-09-30T19:10:14.633Z,11.60
2022-09-30T19:12:48.243Z,11.50
2022-09-30T19:15:23.984Z,12.90
2022-09-30T19:17:57.844Z,12.10
2022-09-30T19:20:31.536Z,12.90
2022-09-30T19:23:06.763Z,12.80
2022-09-30T19:25:44.159Z,13.30
2022-09-30T19:28:21.472Z,14.70
2022-09-30T19:30:56.233Z,11.70
2022-09-30T19:33:29.762Z,12.50
2022-09-30T19:36:14.761Z,13.40
2022-09-30T19:38:50.282Z,14.40
2022-09-30T19:41:31.437Z,14.00
2022-09-30T19:44:05.543Z,15.60
2022-09-30T19:46:42.270Z,14.90
2022-09-30T19:49:16.559Z,14.80
2022-09-30T19:51:54.655Z,16.10
2022-09-30T19:54:38.599Z,15.70
2022-09-30T19:57:14.807Z,14.30
2022-09-30T19:59:48.514Z,15.90
2022-09-30T20:02:22.531Z,15.80
2022-09-30T20:04:55.918Z,15.00
2022-09-30T20:07:30.895Z,16.20
2022-09-30T20:10:05.214Z,16.90
2022-09-30T20:12:39.355Z,15.40
2022-09-30T20:15:33.284Z,16.60
2022-09-30T20:18:06.836Z,17.00
2022-09-30T20:20:45.896Z,16.60
2022-09-30T20:23:32.451Z,15.90
2022-09-30T20:26:06.453Z,18.40
2022-09-30T20:28:39.776Z,20.20
2022-09-30T20:31:16.861Z,21.00
2022-09-30T20:33:55.450Z,20.70
2022-09-30T20:36:30.499Z,22.10
2022-09-30T20:39:07.387Z,25.10
2022-09-30T20:41:42.168Z,24.60
2022-09-30T20:44:21.192Z,22.50
2022-09-30T20:46:58.247Z,22.50
2022-09-30T20:49:32.855Z,23.60
2022-09-30T20:52:09.660Z,21.70
2022-09-30T20:54:46.276Z,23.20
2022-09-30T20:57:30.431Z,21.80
2022-09-30T21:02:39.363Z,21.30
2022-09-30T21:05:13.352Z,20.60
2022-09-30T21:07:46.679Z,18.50
2022-09-30T21:10:20.167Z,17.80
2022-09-30T21:12:54.142Z,18.90
2022-09-30T21:15:31.916Z,20.10
2022-09-30T21:18:06.067Z,19.60
2022-09-30T21:20:43.053Z,19.90
2022-09-30T21:23:20.105Z,20.20
2022-09-30T21:25:59.583Z,20.50
2022-09-30T21:28:38.491Z,18.60
2022-09-30T21:31:33.692Z,17.60
2022-09-30T21:34:27.509Z,19.80
2022-09-30T21:37:10.749Z,19.40
2022-09-30T21:39:48.868Z,20.60
2022-09-30T21:42:28.479Z,20.30
2022-09-30T21:45:04.619Z,21.20
2022-09-30T21:48:06.621Z,22.00
2022-09-30T21:50:42.750Z,19.80
2022-09-30T21:53:19.539Z,19.50
2022-09-30T21:55:55.291Z,19.90
2022-09-30T21:58:31.819Z,20.70
2022-09-30T22:01:07.173Z,21.20
2022-09-30T22:03:43.024Z,21.90
2022-09-30T22:06:19.298Z,22.50
2022-09-30T22:09:00.624Z,23.00
2022-09-30T22:11:34.251Z,23.40
2022-09-30T22:14:08.152Z,21.90
2022-09-30T22:16:46.121Z,20.90
2022-09-30T22:19:23.106Z,22.30
2022-09-30T22:21:56.096Z,21.80
2022-09-30T22:24:33.348Z,21.70
2022-09-30T22:27:09.502Z,21.30
2022-09-30T22:29:55.874Z,22.70
2022-09-30T22:32:33.059Z,22.50
2022-09-30T22:35:24.318Z,22.80
2022-09-30T22:38:16.778Z,23.20
2022-09-30T22:40:56.012Z,21.20
2022-09-30T22:43:39.472Z,21.00
2022-09-30T22:46:12.999Z,21.90
2022-09-30T22:48:46.647Z,23.70
2022-09-30T22:51:20.107Z,21.90
2022-09-30T22:53:56.717Z,22.40
2022-09-30T22:56:30.580Z,22.10
2022-09-30T22:59:04.325Z,20.10
2022-09-30T23:01:38.204Z,21.50
2022-09-30T23:04:11.842Z,22.20
2022-09-30T23:06:45.674Z,22.20
2022-09-30T23:09:23.202Z,23.70
2022-09-30T23:11:59.506Z,22.80
2022-09-30T23:14:33.625Z,23.50
2022-09-30T23:17:10.812Z,23.00
2022-09-30T23:19:47.781Z,22.50
2022-09-30T23:22:21.541Z,23.10
2022-09-30T23:24:55.106Z,24.10
2022-09-30T23:27:28.666Z,23.80
2022-09-30T23:30:02.051Z,25.10
2022-09-30T23:32:35.912Z,24.10
2022-09-30T23:35:14.436Z,23.70
2022-09-30T23:37:51.034Z,23.00
2022-09-30T23:40:24.684Z,22.60
2022-09-30T23:42:58.182Z,22.40
2022-09-30T23:45:31.826Z,24.00
2022-09-30T23:48:05.946Z,24.20
2022-09-30T23:50:51.822Z,24.40
2022-09-30T23:53:26.237Z,24.90
2022-09-30T23:56:04.731Z,23.80
2022-09-30T23:58:39.386Z,24.10
